Time;durP1;ratioP1;P1;durP2;ratioP2;P2;SDS_P1;SDS_P2;PMS_P1;PMS_P2;Temp;Humidity;BMP_temperature;BMP_pressure;BME280_temperature;BME280_humidity;BME280_pressure;Samples;Min_cycle;Max_cycle;Signal;HPM_P1;HPM_P2
2021/10/14 00:01:52;;;;;;;;;;;;;;;21.36;64.71;102482.88;7287840;19;152696;-56
2021/10/14 00:04:19;;;;;;;;;;;;;;;21.33;65.06;102492.72;7285137;19;153477;-56
2021/10/14 00:06:45;;;;;;;;;;;;;;;21.33;65.08;102494.69;7295348;19;151682;-57
2021/10/14 00:09:13;;;;;;;;;;;;;;;21.32;65.18;102487.34;7286937;19;153308;-57
2021/10/14 00:11:40;;;;;;;;;;;;;;;21.30;65.02;102482.03;7287511;19;152193;-57
2021/10/14 00:14:10;;;;;;;;;;;;;;;21.29;65.09;102483.16;7288085;19;152057;-58
2021/10/14 00:16:36;;;;;;;;;;;;;;;21.28;64.83;102485.09;7286986;19;153781;-57
2021/10/14 00:19:03;;;;;;;;;;;;;;;21.27;65.49;102476.94;7288118;19;151505;-57
2021/10/14 00:21:30;;;;;;;;;;;;;;;21.26;65.07;102487.34;7287357;19;152023;-57
2021/10/14 00:23:57;;;;;;;;;;;;;;;21.24;65.29;102477.50;7286909;19;153224;-58
2021/10/14 00:26:24;;;;;;;;;;;;;;;21.24;65.22;102483.13;7284741;19;151797;-58
2021/10/14 00:28:50;;;;;;;;;;;;;;;21.23;65.06;102481.44;7295093;19;152881;-57
2021/10/14 00:31:17;;;;;;;;;;;;;;;21.23;65.11;102481.44;7287415;19;151675;-59
2021/10/14 00:33:44;;;;;;;;;;;;;;;21.22;65.26;102482.53;7287353;19;153510;-58
2021/10/14 00:36:11;;;;;;;;;;;;;;;21.23;65.25;102481.44;7286139;19;153299;-58
2021/10/14 00:38:37;;;;;;;;;;;;;;;21.22;65.44;102476.91;7286442;19;151663;-58
2021/10/14 00:41:05;;;;;;;;;;;;;;;21.22;65.08;102477.78;7288013;19;152979;-58
2021/10/14 00:43:32;;;;;;;;;;;;;;;21.21;65.51;102475.25;7287345;19;153533;-58
2021/10/14 00:45:58;;;;;;;;;;;;;;;21.21;65.16;102472.44;7284960;19;152238;-57
2021/10/14 00:48:25;;;;;;;;;;;;;;;21.21;65.77;102469.63;7286914;19;153314;-58
2021/10/14 00:50:52;;;;;;;;;;;;;;;21.19;65.69;102474.66;7293335;19;151505;-58
2021/10/14 00:53:19;;;;;;;;;;;;;;;21.20;65.76;102471.59;7285933;19;153128;-58
2021/10/14 00:55:46;;;;;;;;;;;;;;;21.20;65.87;102473.56;7283140;19;154068;-58
2021/10/14 00:58:13;;;;;;;;;;;;;;;21.19;65.55;102469.06;7285861;19;151878;-57
2021/10/14 01:00:40;;;;;;;;;;;;;;;21.17;65.85;102469.31;7281540;19;153186;-57
2021/10/14 01:03:07;;;;;;;;;;;;;;;21.17;66.07;102472.13;7282524;19;154043;-58
2021/10/14 01:05:34;;;;;;;;;;;;;;;21.16;65.75;102476.09;7284396;19;151698;-56
2021/10/14 01:08:00;;;;;;;;;;;;;;;21.16;66.00;102470.47;7286899;19;152675;-57
2021/10/14 01:10:27;;;;;;;;;;;;;;;21.17;66.37;102471.28;7292138;19;154585;-59
2021/10/14 01:12:54;;;;;;;;;;;;;;;21.18;66.13;102464.53;7283976;19;152596;-58
2021/10/14 01:15:24;;;;;;;;;;;;;;;21.15;66.49;102468.75;7282691;19;153266;-59
2021/10/14 01:17:51;;;;;;;;;;;;;;;21.15;65.96;102465.94;7283760;19;151913;-57
2021/10/14 01:20:17;;;;;;;;;;;;;;;21.15;66.17;102457.53;7281906;19;152795;-58
2021/10/14 01:22:44;;;;;;;;;;;;;;;21.14;65.92;102454.97;7282676;19;153254;-59
2021/10/14 01:25:11;;;;;;;;;;;;;;;21.13;66.28;102456.09;7283290;19;153012;-57
2021/10/14 01:27:38;;;;;;;;;;;;;;;21.13;66.68;102450.47;7283644;19;153494;-58
2021/10/14 01:30:06;;;;;;;;;;;;;;;21.11;66.63;102459.16;7282692;19;153950;-59
2021/10/14 01:32:33;;;;;;;;;;;;;;;21.12;66.50;102455.22;7291486;19;151801;-58
2021/10/14 01:35:00;;;;;;;;;;;;;;;21.11;66.71;102461.13;7281958;19;153900;-59
2021/10/14 01:37:27;;;;;;;;;;;;;;;21.11;66.59;102453.53;7284305;19;152501;-59
2021/10/14 01:39:54;;;;;;;;;;;;;;;21.10;67.32;102451.00;7284285;19;152820;-59
2021/10/14 01:42:21;;;;;;;;;;;;;;;21.09;67.32;102447.34;7282617;19;153217;-58
2021/10/14 01:44:47;;;;;;;;;;;;;;;21.09;67.44;102443.69;7282620;19;151930;-58
2021/10/14 01:47:14;;;;;;;;;;;;;;;21.08;67.76;102441.97;7282744;19;153180;-58
2021/10/14 01:49:41;;;;;;;;;;;;;;;21.07;67.98;102445.94;7281178;19;153217;-58
2021/10/14 01:52:07;;;;;;;;;;;;;;;21.07;67.81;102445.94;7283524;19;151550;-57
2021/10/14 01:54:34;;;;;;;;;;;;;;;21.06;68.15;102442.28;7290266;19;152615;-59
2021/10/14 01:57:01;;;;;;;;;;;;;;;21.07;68.06;102438.34;7284347;19;151506;-58
2021/10/14 01:59:27;;;;;;;;;;;;;;;21.07;68.40;102443.13;7283167;19;153355;-59
2021/10/14 02:01:54;;;;;;;;;;;;;;;21.06;68.52;102433.00;7279934;19;153625;-58
2021/10/14 02:04:21;;;;;;;;;;;;;;;21.07;68.65;102437.50;7282877;19;151892;-57
2021/10/14 02:06:47;;;;;;;;;;;;;;;21.06;68.32;102433.00;7286710;19;152953;-58
2021/10/14 02:09:15;;;;;;;;;;;;;;;21.05;68.53;102426.53;7288535;19;154958;-58
2021/10/14 02:11:44;;;;;;;;;;;;;;;21.05;68.62;102425.69;7288561;19;152044;-57
2021/10/14 02:14:12;;;;;;;;;;;;;;;21.06;68.50;102428.22;7289602;19;152419;-59
2021/10/14 02:16:38;;;;;;;;;;;;;;;21.04;68.81;102424.84;7296232;19;153218;-58
2021/10/14 02:19:05;;;;;;;;;;;;;;;21.03;68.99;102422.31;7287864;19;153410;-58
2021/10/14 02:21:32;;;;;;;;;;;;;;;21.02;68.84;102424.28;7288618;19;153672;-57
2021/10/14 02:23:59;;;;;;;;;;;;;;;21.02;68.64;102421.47;7288941;19;152131;-58
2021/10/14 02:26:25;;;;;;;;;;;;;;;21.02;68.79;102420.63;7287472;19;151905;-57
2021/10/14 02:28:52;;;;;;;;;;;;;;;21.02;68.65;102415.00;7287312;19;153135;-58
2021/10/14 02:31:19;;;;;;;;;;;;;;;21.00;69.02;102415.28;7288348;19;151982;-59
2021/10/14 02:33:46;;;;;;;;;;;;;;;20.98;68.52;102414.72;7289678;19;153490;-58
2021/10/14 02:36:13;;;;;;;;;;;;;;;20.98;68.99;102413.88;7288060;19;154669;-57
2021/10/14 02:38:39;;;;;;;;;;;;;;;20.97;68.58;102414.97;7295126;19;152465;-58
2021/10/14 02:41:06;;;;;;;;;;;;;;;20.96;68.54;102410.47;7288617;19;153963;-60
2021/10/14 02:43:33;;;;;;;;;;;;;;;20.95;68.54;102415.25;7287873;19;151738;-58
2021/10/14 02:45:59;;;;;;;;;;;;;;;20.95;68.90;102405.97;7287811;19;153635;-58
2021/10/14 02:48:26;;;;;;;;;;;;;;;20.94;68.64;102407.94;7284308;19;153910;-59
2021/10/14 02:50:53;;;;;;;;;;;;;;;20.94;68.64;102409.94;7288681;19;151723;-58
2021/10/14 02:53:19;;;;;;;;;;;;;;;20.92;68.60;102403.72;7288909;19;152662;-57
2021/10/14 02:55:46;;;;;;;;;;;;;;;20.92;68.46;102398.09;7287766;19;153050;-58
2021/10/14 02:58:13;;;;;;;;;;;;;;;20.92;69.15;102407.38;7296810;19;152123;-57
2021/10/14 03:00:39;;;;;;;;;;;;;;;20.90;69.02;102398.38;7285837;19;153196;-58
2021/10/14 03:03:06;;;;;;;;;;;;;;;20.91;69.10;102407.66;7286342;19;151794;-57
2021/10/14 03:05:33;;;;;;;;;;;;;;;20.90;69.11;102408.75;7286943;19;151891;-58
2021/10/14 03:08:00;;;;;;;;;;;;;;;20.88;69.35;102402.59;7286950;19;153154;-58
2021/10/14 03:10:26;;;;;;;;;;;;;;;20.86;69.69;102402.84;7288077;19;151721;-58
2021/10/14 03:12:53;;;;;;;;;;;;;;;20.86;69.69;102403.69;7287524;19;153289;-58
2021/10/14 03:15:20;;;;;;;;;;;;;;;20.87;69.34;102401.75;7286909;19;153232;-57
2021/10/14 03:17:46;;;;;;;;;;;;;;;20.84;69.63;102397.53;7287844;19;152107;-58
2021/10/14 03:20:13;;;;;;;;;;;;;;;20.84;69.91;102405.97;7293594;19;153745;-58
2021/10/14 03:22:40;;;;;;;;;;;;;;;20.85;69.95;102406.78;7287869;19;151853;-58
2021/10/14 03:25:07;;;;;;;;;;;;;;;20.84;69.68;102400.34;7287932;19;152577;-58
2021/10/14 03:27:33;;;;;;;;;;;;;;;20.84;69.41;102407.91;7283874;19;153784;-58
2021/10/14 03:30:00;;;;;;;;;;;;;;;20.83;69.53;102401.47;7287376;19;151759;-59
2021/10/14 03:32:27;;;;;;;;;;;;;;;20.82;69.64;102399.75;7287437;19;152933;-58
2021/10/14 03:34:54;;;;;;;;;;;;;;;20.81;69.96;102392.44;7285570;19;154145;-57
2021/10/14 03:37:20;;;;;;;;;;;;;;;20.81;69.76;102398.06;7283454;19;152141;-57
2021/10/14 03:39:47;;;;;;;;;;;;;;;20.81;70.06;102394.41;7286823;19;153394;-57
2021/10/14 03:42:14;;;;;;;;;;;;;;;20.80;70.08;102395.56;7292912;19;153315;-59
2021/10/14 03:44:40;;;;;;;;;;;;;;;20.80;69.88;102389.94;7282193;19;153387;-57
2021/10/14 03:47:07;;;;;;;;;;;;;;;20.80;70.04;102396.38;7284863;19;153382;-58
2021/10/14 03:49:34;;;;;;;;;;;;;;;20.78;69.68;102398.63;7286314;19;151733;-59
2021/10/14 03:52:00;;;;;;;;;;;;;;;20.79;69.73;102389.09;7287732;19;153594;-57
2021/10/14 03:54:27;;;;;;;;;;;;;;;20.78;70.03;102390.19;7285360;19;154370;-59
2021/10/14 03:56:54;;;;;;;;;;;;;;;20.77;69.91;102396.94;7287124;19;151547;-58
2021/10/14 03:59:20;;;;;;;;;;;;;;;20.77;69.85;102394.13;7287502;19;152283;-57
2021/10/14 04:01:47;;;;;;;;;;;;;;;20.78;69.56;102392.16;7282869;19;153785;-57
2021/10/14 04:04:19;;;;;;;;;;;;;;;20.77;69.97;102396.94;7293656;19;151700;-58
2021/10/14 04:06:48;;;;;;;;;;;;;;;20.76;70.10;102392.41;7282354;19;152819;-57
2021/10/14 04:09:15;;;;;;;;;;;;;;;20.76;70.35;102397.19;7286132;19;151738;-58
2021/10/14 04:11:42;;;;;;;;;;;;;;;20.76;70.30;102392.41;7287275;19;152761;-58
2021/10/14 04:14:09;;;;;;;;;;;;;;;20.74;70.21;102385.41;7285465;19;153890;-58
2021/10/14 04:16:35;;;;;;;;;;;;;;;20.74;70.66;102391.03;7286344;19;151666;-58
2021/10/14 04:19:02;;;;;;;;;;;;;;;20.73;70.43;102384.56;7286809;19;152321;-59
2021/10/14 04:21:29;;;;;;;;;;;;;;;20.73;70.31;102386.50;7284527;19;153157;-58
2021/10/14 04:23:56;;;;;;;;;;;;;;;20.72;70.38;102385.66;7286041;19;151511;-58
2021/10/14 04:26:23;;;;;;;;;;;;;;;20.72;70.13;102382.84;7291209;19;153454;-58
2021/10/14 04:28:50;;;;;;;;;;;;;;;20.72;70.25;102382.00;7283744;19;151712;-58
2021/10/14 04:31:16;;;;;;;;;;;;;;;20.71;70.24;102383.16;7285654;19;152526;-58
2021/10/14 04:33:43;;;;;;;;;;;;;;;20.71;70.25;102385.97;7284392;19;153371;-57
2021/10/14 04:36:10;;;;;;;;;;;;;;;20.70;70.03;102390.72;7285882;19;151748;-59
2021/10/14 04:38:37;;;;;;;;;;;;;;;20.70;70.32;102382.31;7285905;19;153073;-58
2021/10/14 04:41:03;;;;;;;;;;;;;;;20.71;69.88;102384.00;7284540;19;154049;-58
2021/10/14 04:43:30;;;;;;;;;;;;;;;20.72;70.79;102380.03;7284647;19;151671;-58
2021/10/14 04:45:57;;;;;;;;;;;;;;;20.74;70.93;102377.81;7285742;19;153673;-58
2021/10/14 04:48:24;;;;;;;;;;;;;;;20.76;71.29;102375.56;7290933;19;154108;-58
2021/10/14 04:50:50;;;;;;;;;;;;;;;20.80;71.41;102371.09;7285995;19;153430;-58
2021/10/14 04:53:17;;;;;;;;;;;;;;;20.82;72.18;102368.84;7284589;19;153623;-57
2021/10/14 04:55:44;;;;;;;;;;;;;;;20.87;72.15;102370.84;7285120;19;151689;-58
2021/10/14 04:58:10;;;;;;;;;;;;;;;20.91;72.94;102368.31;7285774;19;153005;-57
2021/10/14 05:00:37;;;;;;;;;;;;;;;20.95;73.54;102364.66;7283970;19;153276;-58
2021/10/14 05:03:04;;;;;;;;;;;;;;;20.99;73.71;102360.19;7282429;19;151670;-58
2021/10/14 05:05:36;;;;;;;;;;;;;;;21.06;74.43;102357.97;7284763;19;152030;-58
2021/10/14 05:08:02;;;;;;;;;;;;;;;21.11;74.53;102357.97;7288871;19;153328;-58
2021/10/14 05:10:30;;;;;;;;;;;;;;;21.17;74.88;102370.09;7284985;19;152701;-57
2021/10/14 05:12:57;;;;;;;;;;;;;;;21.22;74.52;102359.72;7283523;19;153537;-58
2021/10/14 05:15:24;;;;;;;;;;;;;;;21.27;74.19;102356.91;7284987;19;151861;-58
2021/10/14 05:17:51;;;;;;;;;;;;;;;21.35;73.91;102363.13;7283072;19;151711;-58
2021/10/14 05:20:17;;;;;;;;;;;;;;;21.41;73.55;102365.63;7283029;19;154012;-58
2021/10/14 05:22:44;;;;;;;;;;;;;;;21.46;73.23;102362.84;7283955;19;151665;-57
2021/10/14 05:25:11;;;;;;;;;;;;;;;21.52;72.69;102358.06;7283818;19;152626;-58
2021/10/14 05:27:38;;;;;;;;;;;;;;;21.57;72.16;102355.25;7281256;19;153275;-57
2021/10/14 05:30:06;;;;;;;;;;;;;;;21.64;72.07;102361.41;7291359;19;151806;-58
2021/10/14 05:32:32;;;;;;;;;;;;;;;21.69;71.94;102365.09;7282877;19;153994;-57
2021/10/14 05:34:59;;;;;;;;;;;;;;;21.77;71.16;102362.81;7282382;19;151727;-57
2021/10/14 05:37:27;;;;;;;;;;;;;;;21.81;71.35;102353.53;7283985;19;153869;-57
2021/10/14 05:39:54;;;;;;;;;;;;;;;21.86;70.99;102350.72;7284588;19;153265;-57
2021/10/14 05:42:21;;;;;;;;;;;;;;;21.93;70.80;102339.22;7290817;19;152219;-58
2021/10/14 05:44:48;;;;;;;;;;;;;;;21.98;70.39;102333.56;7290566;19;152751;-58
2021/10/14 05:47:14;;;;;;;;;;;;;;;22.04;70.10;102349.31;7288461;19;154114;-57
2021/10/14 05:49:41;;;;;;;;;;;;;;;22.08;69.96;102341.97;7289940;19;151687;-58
2021/10/14 05:52:08;;;;;;;;;;;;;;;22.13;69.35;102348.44;7297436;19;152711;-58
2021/10/14 05:54:35;;;;;;;;;;;;;;;22.19;69.53;102343.66;7290123;19;152365;-57
2021/10/14 05:57:01;;;;;;;;;;;;;;;22.23;69.45;102341.94;7290048;19;153501;-57
2021/10/14 05:59:28;;;;;;;;;;;;;;;22.29;68.82;102340.81;7287875;19;154141;-57
2021/10/14 06:01:55;;;;;;;;;;;;;;;22.33;68.73;102353.19;7289536;19;152307;-57
2021/10/14 06:04:22;;;;;;;;;;;;;;;22.37;68.48;102343.03;7289626;19;152817;-57
2021/10/14 06:06:49;;;;;;;;;;;;;;;22.41;68.44;102346.94;7287643;19;152125;-58
2021/10/14 06:09:16;;;;;;;;;;;;;;;22.45;68.05;102345.25;7288635;19;151524;-58
2021/10/14 06:11:42;;;;;;;;;;;;;;;22.49;68.21;102351.97;7288103;19;152717;-58
2021/10/14 06:14:09;;;;;;;;;;;;;;;22.53;68.62;102344.63;7295977;19;153950;-57
2021/10/14 06:16:36;;;;;;;;;;;;;;;22.56;68.53;102337.59;7288799;19;152506;-57
2021/10/14 06:19:03;;;;;;;;;;;;;;;22.58;67.79;102341.81;7288556;19;153233;-57
2021/10/14 06:21:30;;;;;;;;;;;;;;;22.61;67.94;102340.41;7289501;19;151869;-57
2021/10/14 06:23:57;;;;;;;;;;;;;;;22.63;67.54;102336.16;7289648;19;153646;-57
2021/10/14 06:26:24;;;;;;;;;;;;;;;22.65;67.37;102337.84;7288024;19;154046;-57
2021/10/14 06:28:51;;;;;;;;;;;;;;;22.68;67.28;102337.25;7289063;19;151851;-57
2021/10/14 06:31:19;;;;;;;;;;;;;;;22.69;67.10;102338.94;7288894;19;152253;-57
2021/10/14 06:33:46;;;;;;;;;;;;;;;22.71;67.18;102333.91;7286187;19;154196;-57
2021/10/14 06:36:12;;;;;;;;;;;;;;;22.72;67.14;102335.56;7295983;19;151491;-57
2021/10/14 06:38:39;;;;;;;;;;;;;;;22.72;67.25;102330.78;7288270;19;153350;-58
2021/10/14 06:41:06;;;;;;;;;;;;;;;22.72;67.07;102333.59;7288780;19;152142;-58
2021/10/14 06:43:33;;;;;;;;;;;;;;;22.74;67.13;102336.13;7286217;19;152590;-59
2021/10/14 06:46:00;;;;;;;;;;;;;;;22.74;66.88;102334.16;7286009;19;154057;-58
2021/10/14 06:48:27;;;;;;;;;;;;;;;22.75;66.78;102329.38;7286919;19;152088;-58
2021/10/14 06:50:54;;;;;;;;;;;;;;;22.74;66.74;102330.50;7287458;19;152739;-58
2021/10/14 06:53:20;;;;;;;;;;;;;;;22.74;66.62;102330.50;7288390;19;153982;-57
2021/10/14 06:55:49;;;;;;;;;;;;;;;22.74;66.21;102324.88;7286447;19;151790;-58
2021/10/14 06:58:16;;;;;;;;;;;;;;;22.74;66.22;102328.53;7294158;19;152770;-58
2021/10/14 07:00:44;;;;;;;;;;;;;;;22.74;66.37;102327.69;7288671;19;151666;-59
2021/10/14 07:03:11;;;;;;;;;;;;;;;22.73;66.32;102328.81;7285410;19;153374;-59
2021/10/14 07:05:37;;;;;;;;;;;;;;;22.73;66.10;102326.84;7287439;19;152273;-58
2021/10/14 07:08:04;;;;;;;;;;;;;;;22.72;66.04;102325.16;7286670;19;152209;-57
2021/10/14 07:10:31;;;;;;;;;;;;;;;22.71;66.16;102322.63;7288476;19;152728;-58
2021/10/14 07:13:04;;;;;;;;;;;;;;;22.71;66.03;102319.81;7287183;19;155026;-57
2021/10/14 07:15:35;;;;;;;;;;;;;;;22.70;66.63;102318.13;7287834;19;151821;-57
2021/10/14 07:18:02;;;;;;;;;;;;;;;22.69;66.52;102319.22;7293722;19;153565;-57
2021/10/14 07:20:29;;;;;;;;;;;;;;;22.68;66.23;102328.81;7287882;19;151806;-57
2021/10/14 07:22:55;;;;;;;;;;;;;;;22.65;66.74;102321.78;7286948;19;153405;-57
2021/10/14 07:25:22;;;;;;;;;;;;;;;22.65;66.32;102323.75;7285001;19;153321;-58
2021/10/14 07:27:49;;;;;;;;;;;;;;;22.63;66.92;102322.06;7284807;19;151667;-58
2021/10/14 07:30:16;;;;;;;;;;;;;;;22.63;66.69;102322.06;7288374;19;153082;-57
2021/10/14 07:32:43;;;;;;;;;;;;;;;22.62;66.86;102320.38;7287520;19;154600;-58
2021/10/14 07:35:10;;;;;;;;;;;;;;;22.61;66.77;102320.69;7288373;19;152018;-57
2021/10/14 07:37:37;;;;;;;;;;;;;;;22.60;67.20;102319.00;7289734;19;153084;-58
2021/10/14 07:40:04;;;;;;;;;;;;;;;22.59;67.41;102318.13;7295471;19;153457;-57
2021/10/14 07:42:37;;;;;;;;;;;;;;;22.57;67.00;102313.94;7286579;19;154364;-58
2021/10/14 07:45:04;;;;;;;;;;;;;;;22.57;66.93;102320.41;7287757;19;153737;-58
2021/10/14 07:47:33;;;;;;;;;;;;;;;22.56;66.49;102307.47;7285583;19;151783;-58
2021/10/14 07:50:04;;;;;;;;;;;;;;;22.55;66.16;102314.22;7286800;19;153578;-58
2021/10/14 07:52:31;;;;;;;;;;;;;;;22.55;66.04;102308.59;7284227;19;154348;-58
2021/10/14 07:55:02;;;;;;;;;;;;;;;22.52;65.85;102312.00;7285942;19;152860;-56
2021/10/14 07:57:29;;;;;;;;;;;;;;;22.32;61.41;102308.41;7285982;19;153292;-56
2021/10/14 07:59:56;;;;;;;;;;;;;;;22.15;59.65;102315.22;7285291;19;153081;-57
2021/10/14 08:02:22;;;;;;;;;;;;;;;22.01;58.68;102316.97;7291520;19;151919;-57
2021/10/14 08:04:52;;;;;;;;;;;;;;;22.05;61.14;102312.44;7283343;19;153986;-57
2021/10/14 08:07:19;;;;;;;;;;;;;;;22.13;62.24;102316.63;7285608;19;151647;-55
2021/10/14 08:09:46;;;;;;;;;;;;;;;22.13;62.09;102313.81;7284983;19;151877;-56
2021/10/14 08:12:13;;;;;;;;;;;;;;;22.12;62.42;102312.97;7284573;19;153986;-57
2021/10/14 08:14:39;;;;;;;;;;;;;;;22.12;62.57;102314.97;7286456;19;152345;-56
2021/10/14 08:17:06;;;;;;;;;;;;;;;22.08;63.38;102308.19;7284325;19;153133;-56
2021/10/14 08:19:36;;;;;;;;;;;;;;;22.14;63.14;102315.50;7284363;19;153238;-57
2021/10/14 08:22:04;;;;;;;;;;;;;;;22.10;63.55;102309.59;7286615;19;151811;-58
2021/10/14 08:24:30;;;;;;;;;;;;;;;22.09;62.95;102310.72;7290787;19;152699;-56
2021/10/14 08:26:57;;;;;;;;;;;;;;;22.07;62.51;102321.47;7286231;19;151649;-57
2021/10/14 08:29:29;;;;;;;;;;;;;;;22.08;62.55;102316.63;7278713;19;153342;-56
2021/10/14 08:31:57;;;;;;;;;;;;;;;22.04;63.24;102322.00;7284306;19;154198;-57
2021/10/14 08:34:24;;;;;;;;;;;;;;;22.02;62.51;102313.03;7284070;19;151851;-57
2021/10/14 08:36:50;;;;;;;;;;;;;;;22.01;62.99;102311.31;7286046;19;152730;-58
2021/10/14 08:39:17;;;;;;;;;;;;;;;22.02;62.79;102309.34;7284663;19;153849;-58
2021/10/14 08:41:46;;;;;;;;;;;;;;;22.03;63.07;102317.50;7284935;19;151497;-57
2021/10/14 08:44:19;;;;;;;;;;;;;;;21.99;63.13;102315.53;7283226;19;153730;-57
2021/10/14 08:46:47;;;;;;;;;;;;;;;21.98;62.97;102320.34;7291918;19;153241;-58
2021/10/14 08:49:14;;;;;;;;;;;;;;;21.94;62.71;102318.38;7282611;19;153873;-59
2021/10/14 08:51:41;;;;;;;;;;;;;;;21.92;62.82;102321.44;7283275;19;153971;-57
2021/10/14 08:54:11;;;;;;;;;;;;;;;21.89;62.60;102309.94;7285095;19;151942;-56
2021/10/14 08:56:47;;;;;;;;;;;;;;;21.87;62.82;102309.34;7284095;19;153853;-57
2021/10/14 08:59:18;;;;;;;;;;;;;;;21.84;62.49;102305.16;7283691;19;152860;-58
2021/10/14 09:02:03;;;;;;;;;;;;;;;21.81;62.83;102300.06;7284006;19;152203;-58
2021/10/14 09:04:32;;;;;;;;;;;;;;;21.77;62.78;102304.59;7283747;19;152840;-60
2021/10/14 09:07:15;;;;;;;;;;;;;;;21.67;59.74;102301.78;7282777;19;154186;-58
2021/10/14 09:09:43;;;;;;;;;;;;;;;21.46;58.63;102303.78;7287005;19;152014;-60
2021/10/14 09:12:12;;;;;;;;;;;;;;;21.32;58.78;102297.03;7279697;19;154309;-59
2021/10/14 09:14:53;;;;;;;;;;;;;;;21.28;58.60;102304.34;7282321;19;152428;-58
2021/10/14 09:17:21;;;;;;;;;;;;;;;21.35;58.31;102301.25;7290699;19;152639;-59
2021/10/14 09:19:48;;;;;;;;;;;;;;;21.14;58.91;102300.38;7290167;19;153232;-58
2021/10/14 09:22:16;;;;;;;;;;;;;;;21.14;58.89;102297.59;7290738;19;151584;-58
2021/10/14 09:24:44;;;;;;;;;;;;;;;21.09;59.83;102300.34;7289843;19;153359;-56
2021/10/14 09:27:12;;;;;;;;;;;;;;;21.17;61.07;102295.03;7289745;19;153693;-57
2021/10/14 09:29:39;;;;;;;;;;;;;;;21.16;61.76;102293.38;7293093;19;151808;-57
2021/10/14 09:32:07;;;;;;;;;;;;;;;21.14;62.22;102300.38;7288454;19;155183;-58
2021/10/14 09:34:36;;;;;;;;;;;;;;;21.11;62.04;102287.72;7290482;19;152210;-57
2021/10/14 09:37:04;;;;;;;;;;;;;;;21.08;62.78;102282.63;7288766;19;153380;-56
2021/10/14 09:39:31;;;;;;;;;;;;;;;21.07;62.76;102280.13;7288192;19;153922;-57
2021/10/14 09:41:58;;;;;;;;;;;;;;;21.08;62.53;102276.16;7290132;19;151856;-57
2021/10/14 09:44:49;;;;;;;;;;;;;;;21.10;62.83;102276.75;7289102;19;154844;-58
2021/10/14 09:47:16;;;;;;;;;;;;;;;21.09;63.35;102275.91;7288448;19;153638;-57
2021/10/14 09:49:43;;;;;;;;;;;;;;;21.08;63.25;102268.59;7286809;19;152046;-57
2021/10/14 09:52:12;;;;;;;;;;;;;;;21.08;63.13;102268.59;7294950;19;154389;-57
2021/10/14 09:54:39;;;;;;;;;;;;;;;21.07;63.26;102274.50;7289185;19;151616;-59
2021/10/14 09:57:07;;;;;;;;;;;;;;;21.08;63.58;102262.13;7289182;19;153455;-58
2021/10/14 09:59:35;;;;;;;;;;;;;;;21.10;63.53;102263.53;7288574;19;154296;-57
2021/10/14 10:02:04;;;;;;;;;;;;;;;21.08;63.52;102262.97;7287752;19;152209;-58
2021/10/14 10:04:31;;;;;;;;;;;;;;;21.11;63.12;102259.63;7288818;19;152616;-57
2021/10/14 10:07:02;;;;;;;;;;;;;;;21.12;63.11;102263.28;7286788;19;153848;-58
2021/10/14 10:09:37;;;;;;;;;;;;;;;21.11;63.07;102256.81;7284886;19;152085;-58
2021/10/14 10:12:05;;;;;;;;;;;;;;;21.11;62.82;102251.19;7288924;19;152624;-59
2021/10/14 10:14:32;;;;;;;;;;;;;;;21.13;63.05;102256.53;7290545;19;153268;-57
2021/10/14 10:17:01;;;;;;;;;;;;;;;21.13;62.86;102248.94;7285875;19;152822;-57
2021/10/14 10:19:44;;;;;;;;;;;;;;;21.11;63.02;102242.75;7281849;19;153645;-58
2021/10/14 10:22:32;;;;;;;;;;;;;;;21.11;62.52;102242.75;7277856;19;152143;-57
2021/10/14 10:25:21;;;;;;;;;;;;;;;21.13;59.80;102245.28;7280538;19;153178;-59
2021/10/14 10:27:49;;;;;;;;;;;;;;;21.13;59.18;102237.72;7284805;19;153848;-56
2021/10/14 10:30:28;;;;;;;;;;;;;;;21.11;59.04;102233.47;7283635;19;152317;-57
2021/10/14 10:32:55;;;;;;;;;;;;;;;21.07;58.36;102236.00;7286135;19;153421;-57
2021/10/14 10:35:37;;;;;;;;;;;;;;;21.03;59.00;102240.47;7284841;19;152655;-58
2021/10/14 10:38:26;;;;;;;;;;;;;;;21.03;58.80;102222.81;7295350;19;152115;-58
2021/10/14 10:40:55;;;;;;;;;;;;;;;20.99;58.53;102230.94;7285304;19;154065;-58
2021/10/14 10:43:29;;;;;;;;;;;;;;;20.97;59.75;102223.91;7284704;19;152319;-57
2021/10/14 10:46:04;;;;;;;;;;;;;;;20.96;60.13;102222.22;7285251;19;152488;-57
2021/10/14 10:48:39;;;;;;;;;;;;;;;20.96;60.24;102225.03;7284809;19;154594;-57
2021/10/14 10:51:08;;;;;;;;;;;;;;;20.93;60.36;102223.66;7287102;19;151794;-58
2021/10/14 10:53:37;;;;;;;;;;;;;;;20.94;60.51;102221.69;7286843;19;153958;-59
2021/10/14 10:56:03;;;;;;;;;;;;;;;20.91;60.52;102209.00;7286587;19;153391;-59
2021/10/14 10:58:30;;;;;;;;;;;;;;;20.88;60.50;102206.78;7287414;19;151914;-57
2021/10/14 11:00:58;;;;;;;;;;;;;;;20.89;60.48;102213.25;7293223;19;152906;-57
2021/10/14 11:03:28;;;;;;;;;;;;;;;20.88;60.58;102206.78;7282169;19;152008;-58
2021/10/14 11:05:58;;;;;;;;;;;;;;;20.89;61.13;102202.84;7285010;19;152753;-58
2021/10/14 11:08:26;;;;;;;;;;;;;;;20.90;61.10;102203.66;7284021;19;153215;-58
2021/10/14 11:11:04;;;;;;;;;;;;;;;20.88;61.17;102200.31;7285923;19;151770;-59
2021/10/14 11:13:32;;;;;;;;;;;;;;;20.87;61.16;102210.69;7287109;19;153942;-59
2021/10/14 11:16:03;;;;;;;;;;;;;;;20.89;60.84;102204.81;7282174;19;153339;-57
2021/10/14 11:18:30;;;;;;;;;;;;;;;20.88;60.95;102194.69;7284392;19;152144;-56
2021/10/14 11:20:58;;;;;;;;;;;;;;;20.86;60.83;102201.44;7286693;19;153944;-60
2021/10/14 11:23:27;;;;;;;;;;;;;;;20.88;61.28;102194.69;7292370;19;152133;-59
2021/10/14 11:26:01;;;;;;;;;;;;;;;20.85;61.54;102193.28;7287434;19;153031;-57
2021/10/14 11:28:29;;;;;;;;;;;;;;;20.90;61.37;102190.47;7285687;19;154594;-57
2021/10/14 11:31:00;;;;;;;;;;;;;;;20.89;61.17;102182.34;7286980;19;151831;-58
2021/10/14 11:33:35;;;;;;;;;;;;;;;20.92;61.62;102184.56;7285331;19;153154;-58
2021/10/14 11:36:06;;;;;;;;;;;;;;;20.97;61.19;102177.00;7285964;19;153462;-58
2021/10/14 11:38:34;;;;;;;;;;;;;;;21.00;61.67;102168.00;7282989;19;152215;-57
2021/10/14 11:41:01;;;;;;;;;;;;;;;21.06;64.03;102174.47;7286143;19;153142;-58
2021/10/14 11:43:30;;;;;;;;;;;;;;;21.08;65.13;102163.75;7288582;19;154368;-59
2021/10/14 11:45:58;;;;;;;;;;;;;;;21.09;66.53;102160.69;7282256;19;153502;-57
2021/10/14 11:48:35;;;;;;;;;;;;;;;21.06;64.24;102166.88;7283237;19;152936;-58
2021/10/14 11:51:05;;;;;;;;;;;;;;;21.06;64.77;102166.03;7285732;19;151886;-57
2021/10/14 11:53:33;;;;;;;;;;;;;;;21.03;64.54;102153.38;7285709;19;152490;-58
2021/10/14 11:56:07;;;;;;;;;;;;;;;21.02;64.33;102154.53;7277212;19;153468;-57
2021/10/14 11:58:35;;;;;;;;;;;;;;;20.99;64.65;102146.63;7286086;19;151631;-58
2021/10/14 12:01:09;;;;;;;;;;;;;;;20.99;64.45;102142.97;7283569;19;155277;-58
2021/10/14 12:03:40;;;;;;;;;;;;;;;20.97;64.29;102140.47;7281463;19;153652;-57
2021/10/14 12:06:08;;;;;;;;;;;;;;;20.97;64.12;102140.47;7291176;19;153573;-58
2021/10/14 12:08:35;;;;;;;;;;;;;;;20.96;64.33;102135.13;7282443;19;154063;-57
2021/10/14 12:11:18;;;;;;;;;;;;;;;20.94;64.11;102135.41;7282855;19;152019;-57
2021/10/14 12:14:03;;;;;;;;;;;;;;;20.94;64.21;102131.78;7284353;19;151506;-57
2021/10/14 12:16:32;;;;;;;;;;;;;;;20.92;64.20;102125.56;7276482;19;153422;-58
2021/10/14 12:19:16;;;;;;;;;;;;;;;20.92;64.25;102128.38;7283264;19;152240;-58
2021/10/14 12:21:49;;;;;;;;;;;;;;;20.91;63.99;102123.88;7286275;19;152177;-59
2021/10/14 12:24:20;;;;;;;;;;;;;;;20.90;63.79;102123.03;7284456;19;153919;-56
2021/10/14 12:26:48;;;;;;;;;;;;;;;20.88;64.26;102111.25;7284951;19;152344;-57
2021/10/14 12:29:16;;;;;;;;;;;;;;;20.91;64.11;102112.66;7290955;19;153041;-58
2021/10/14 12:31:43;;;;;;;;;;;;;;;20.88;63.76;102104.81;7283938;19;151837;-57
2021/10/14 12:34:10;;;;;;;;;;;;;;;20.88;64.23;102096.38;7286190;19;152806;-57